Time;durP1;ratioP1;P1;durP2;ratioP2;P2;SDS_P1;SDS_P2;PMS_P1;PMS_P2;Temp;Humidity;BMP_temperature;BMP_pressure;BME280_temperature;BME280_humidity;BME280_pressure;Samples;Min_cycle;Max_cycle;Signal;HPM_P1;HPM_P2
2021/09/28 00:01:31;;;;;;;5.10;3.10;;;;;;;9.85;75.20;101173.79;93764;1196;86536;-68
2021/09/28 00:03:35;;;;;;;4.30;2.60;;;;;;;9.82;75.30;101175.63;93758;1180;93967;-68
2021/09/28 00:05:40;;;;;;;5.60;3.30;;;;;;;9.84;75.17;101174.36;93729;1196;81214;-67
2021/09/28 00:07:44;;;;;;;3.40;2.70;;;;;;;9.85;75.19;101179.25;93805;1196;81558;-68
2021/09/28 00:09:48;;;;;;;5.50;3.40;;;;;;;9.85;75.17;101177.40;93776;1196;100411;-66
2021/09/28 00:11:52;;;;;;;4.40;2.90;;;;;;;9.87;75.16;101177.23;93766;1196;86573;-67
2021/09/28 00:13:58;;;;;;;4.30;3.10;;;;;;;9.82;75.17;101182.42;93730;1196;94510;-66
2021/09/28 00:16:03;;;;;;;4.70;2.60;;;;;;;9.78;75.23;101185.37;93766;1196;79531;-66
2021/09/28 00:18:07;;;;;;;6.20;2.60;;;;;;;9.74;75.33;101186.61;93761;1196;82596;-67
2021/09/28 00:20:14;;;;;;;5.00;2.70;;;;;;;9.72;75.30;101185.88;93768;1196;100001;-66
2021/09/28 00:22:18;;;;;;;3.20;2.60;;;;;;;9.71;75.40;101186.51;93758;1196;87574;-67
2021/09/28 00:24:22;;;;;;;3.60;2.70;;;;;;;9.71;75.44;101186.77;93763;1196;94165;-67
2021/09/28 00:26:26;;;;;;;3.40;2.40;;;;;;;9.69;75.41;101189.27;93698;1196;78339;-67
2021/09/28 00:28:30;;;;;;;4.20;3.00;;;;;;;9.63;75.49;101184.29;93772;1196;80167;-66
2021/09/28 00:30:35;;;;;;;4.30;2.80;;;;;;;9.63;75.49;101186.91;93756;1196;100541;-67
2021/09/28 00:32:40;;;;;;;3.20;2.60;;;;;;;9.61;75.55;101183.10;93746;1196;87500;-68
2021/09/28 00:34:45;;;;;;;4.20;2.70;;;;;;;9.63;75.56;101186.67;93745;1195;92953;-70
2021/09/28 00:36:49;;;;;;;3.10;2.50;;;;;;;9.62;75.61;101187.48;93761;1195;79106;-69
2021/09/28 00:38:53;;;;;;;3.90;2.80;;;;;;;9.59;75.68;101184.23;93790;1196;82005;-67
2021/09/28 00:40:58;;;;;;;3.10;2.60;;;;;;;9.56;75.73;101187.42;93708;1195;99898;-68
2021/09/28 00:43:03;;;;;;;3.60;2.40;;;;;;;9.53;75.75;101188.13;93779;1196;86527;-67
2021/09/28 00:45:09;;;;;;;3.40;2.90;;;;;;;9.51;75.76;101186.02;93732;1189;94362;-67
2021/09/28 00:47:17;;;;;;;4.60;2.40;;;;;;;9.47;75.85;101183.76;93710;1195;81533;-67
2021/09/28 00:49:21;;;;;;;3.00;2.70;;;;;;;9.47;75.89;101182.48;93710;1196;82706;-67
2021/09/28 00:51:26;;;;;;;3.80;2.70;;;;;;;9.46;76.10;101183.68;93777;1196;99398;-66
2021/09/28 00:53:31;;;;;;;4.10;3.30;;;;;;;9.45;76.06;101184.86;93725;1189;88434;-66
2021/09/28 00:55:35;;;;;;;3.50;2.90;;;;;;;9.44;76.00;101185.88;93737;1195;92911;-65
2021/09/28 00:57:40;;;;;;;4.70;2.80;;;;;;;9.44;75.93;101184.77;93796;1180;80016;-66
2021/09/28 00:59:48;;;;;;;3.00;2.40;;;;;;;9.41;76.02;101181.31;93805;1195;80649;-67
2021/09/28 01:01:53;;;;;;;5.10;3.10;;;;;;;9.39;76.05;101180.27;93717;1196;97553;-66
2021/09/28 01:03:57;;;;;;;4.20;2.40;;;;;;;9.39;76.22;101184.91;93753;1196;87785;-66
2021/09/28 01:06:02;;;;;;;3.70;2.80;;;;;;;9.35;76.35;101181.95;93739;1195;93950;-67
2021/09/28 01:08:09;;;;;;;4.00;2.80;;;;;;;9.35;76.30;101186.27;93793;1195;80269;-66
2021/09/28 01:10:16;;;;;;;2.80;2.30;;;;;;;9.34;76.27;101183.70;93754;1195;81242;-66
2021/09/28 01:12:20;;;;;;;4.00;2.60;;;;;;;9.31;76.31;101178.95;93764;1196;99914;-68
2021/09/28 01:14:24;;;;;;;3.00;2.30;;;;;;;9.29;76.42;101177.23;93758;1195;87683;-66
2021/09/28 01:16:30;;;;;;;4.10;2.40;;;;;;;9.28;76.50;101172.33;93714;1195;94721;-67
2021/09/28 01:18:37;;;;;;;4.00;2.70;;;;;;;9.29;76.53;101171.62;93823;1196;79520;-66
2021/09/28 01:20:41;;;;;;;4.40;2.50;;;;;;;9.28;76.45;101172.30;93753;1196;80768;-67
2021/09/28 01:22:46;;;;;;;3.10;2.10;;;;;;;9.26;76.43;101174.10;93735;1195;99853;-66
2021/09/28 01:24:51;;;;;;;3.40;2.30;;;;;;;9.24;76.48;101169.47;93829;1196;86517;-68
2021/09/28 01:26:55;;;;;;;4.30;2.60;;;;;;;9.25;76.51;101168.52;93746;1196;93858;-67
2021/09/28 01:29:02;;;;;;;3.90;2.70;;;;;;;9.25;76.52;101164.23;93764;1196;79839;-67
2021/09/28 01:31:07;;;;;;;4.50;2.50;;;;;;;9.24;76.62;101162.50;93791;1195;81399;-67
2021/09/28 01:33:12;;;;;;;5.00;2.40;;;;;;;9.23;76.44;101166.95;93715;1196;99578;-67
2021/09/28 01:35:16;;;;;;;4.20;2.50;;;;;;;9.19;76.62;101167.27;93755;1196;88399;-66
2021/09/28 01:37:20;;;;;;;3.90;2.30;;;;;;;9.17;76.66;101163.74;93756;1196;94621;-67
2021/09/28 01:39:25;;;;;;;4.50;2.60;;;;;;;9.17;76.66;101166.15;93749;1195;77962;-67
2021/09/28 01:41:29;;;;;;;3.90;2.60;;;;;;;9.15;76.80;101163.98;93748;1196;80804;-67
2021/09/28 01:43:34;;;;;;;4.50;2.30;;;;;;;9.14;76.81;101163.77;93733;1196;99970;-67
2021/09/28 01:45:39;;;;;;;3.10;2.30;;;;;;;9.11;76.89;101160.59;93732;1196;88449;-67
2021/09/28 01:47:43;;;;;;;5.50;2.30;;;;;;;9.09;76.88;101161.02;93758;1196;91947;-66
2021/09/28 01:49:47;;;;;;;4.40;2.60;;;;;;;9.07;77.04;101165.15;93769;1196;80415;-66
2021/09/28 01:51:51;;;;;;;3.60;2.10;;;;;;;9.06;77.13;101166.42;93756;1196;82086;-67
2021/09/28 01:53:55;;;;;;;3.20;2.30;;;;;;;9.04;77.21;101170.73;93795;1196;98054;-67
2021/09/28 01:56:00;;;;;;;3.40;2.60;;;;;;;9.04;77.19;101170.56;93721;1180;88313;-67
2021/09/28 01:58:04;;;;;;;3.40;2.50;;;;;;;9.01;77.08;101172.30;93730;1195;93567;-67
2021/09/28 02:00:12;;;;;;;3.00;2.30;;;;;;;8.98;77.11;101165.57;93724;1196;81304;-67
2021/09/28 02:02:16;;;;;;;3.30;2.40;;;;;;;8.96;77.13;101166.54;93798;1195;81548;-67
2021/09/28 02:04:20;;;;;;;4.00;2.80;;;;;;;8.97;77.23;101162.54;93758;1195;99913;-65
2021/09/28 02:06:25;;;;;;;2.90;2.40;;;;;;;8.95;77.27;101165.95;93734;1195;87671;-65
2021/09/28 02:08:29;;;;;;;3.40;2.60;;;;;;;8.91;77.32;101164.76;93780;1195;94221;-66
2021/09/28 02:10:34;;;;;;;3.90;2.70;;;;;;;8.88;77.35;101164.27;93730;1195;80661;-66
2021/09/28 02:12:39;;;;;;;3.80;2.50;;;;;;;8.82;77.37;101165.05;93725;1196;82184;-65
2021/09/28 02:14:43;;;;;;;3.30;2.40;;;;;;;8.79;77.42;101160.61;93747;1196;98094;-67
2021/09/28 02:16:47;;;;;;;3.80;2.40;;;;;;;8.79;77.45;101158.45;93683;1196;88021;-66
2021/09/28 02:18:55;;;;;;;4.20;2.40;;;;;;;8.78;77.42;101158.22;93724;1196;93396;-67
2021/09/28 02:20:59;;;;;;;5.10;2.60;;;;;;;8.74;77.46;101158.77;93665;1196;80498;-67
2021/09/28 02:23:06;;;;;;;3.90;2.60;;;;;;;8.72;77.51;101156.14;93685;1196;81001;-67
2021/09/28 02:25:13;;;;;;;3.80;2.60;;;;;;;8.72;77.44;101152.36;93683;1196;99174;-68
2021/09/28 02:27:18;;;;;;;4.60;2.80;;;;;;;8.70;77.50;101151.81;93779;1195;86744;-67
2021/09/28 02:29:22;;;;;;;4.80;3.00;;;;;;;8.70;77.47;101152.38;93792;1195;94324;-66
2021/09/28 02:31:26;;;;;;;5.10;2.50;;;;;;;8.65;77.51;101152.05;93751;1195;79834;-66
2021/09/28 02:33:30;;;;;;;3.40;2.80;;;;;;;8.61;77.67;101152.96;93720;1195;82119;-66
2021/09/28 02:35:34;;;;;;;3.40;2.30;;;;;;;8.57;77.77;101154.98;93750;1196;98634;-66
2021/09/28 02:37:41;;;;;;;4.10;2.50;;;;;;;8.56;77.64;101151.86;93763;1195;87978;-66
2021/09/28 02:39:46;;;;;;;3.50;2.30;;;;;;;8.53;77.72;101154.48;93763;1195;95483;-68
2021/09/28 02:41:50;;;;;;;3.90;2.70;;;;;;;8.52;77.92;101155.23;93787;1195;80401;-70
2021/09/28 02:43:54;;;;;;;5.20;3.00;;;;;;;8.49;77.83;101154.19;93804;1195;82021;-66
2021/09/28 02:46:01;;;;;;;3.80;2.90;;;;;;;8.50;77.88;101159.11;93743;1195;99858;-68
2021/09/28 02:48:06;;;;;;;4.20;3.50;;;;;;;8.49;77.80;101159.61;93795;1195;88302;-67
2021/09/28 02:50:11;;;;;;;3.60;2.40;;;;;;;8.48;77.91;101162.77;93776;1195;94094;-67
2021/09/28 02:52:15;;;;;;;3.90;2.30;;;;;;;8.42;77.93;101159.59;93786;1195;81119;-67
2021/09/28 02:54:20;;;;;;;3.70;2.40;;;;;;;8.40;78.06;101158.92;93824;1196;81181;-67
2021/09/28 02:56:24;;;;;;;3.60;2.10;;;;;;;8.37;78.00;101159.59;93732;1195;99094;-68
2021/09/28 02:58:28;;;;;;;3.70;2.90;;;;;;;8.36;77.95;101163.88;93725;1195;88155;-66
2021/09/28 03:00:33;;;;;;;3.00;2.30;;;;;;;8.31;78.07;101160.41;93736;1195;96737;-66
2021/09/28 03:02:37;;;;;;;4.00;2.50;;;;;;;8.27;78.14;101161.48;93774;1195;80074;-66
2021/09/28 03:04:41;;;;;;;4.90;2.30;;;;;;;8.25;78.14;101162.92;93791;1195;82082;-67
2021/09/28 03:06:46;;;;;;;2.80;2.30;;;;;;;8.23;78.22;101167.27;93763;1195;99385;-66
2021/09/28 03:08:53;;;;;;;5.20;2.70;;;;;;;8.22;78.30;101165.98;93708;1195;88713;-67
2021/09/28 03:10:57;;;;;;;2.80;2.20;;;;;;;8.21;78.26;101166.78;93804;1195;93922;-67
2021/09/28 03:13:01;;;;;;;3.90;2.60;;;;;;;8.14;78.30;101163.00;93770;1196;78367;-67
2021/09/28 03:15:08;;;;;;;3.30;2.50;;;;;;;8.06;78.37;101162.42;93719;1195;81405;-66
2021/09/28 03:17:12;;;;;;;3.90;3.00;;;;;;;7.98;78.54;101161.23;93791;1195;97925;-67
2021/09/28 03:19:16;;;;;;;5.90;2.80;;;;;;;7.98;78.64;101160.02;93756;1195;87532;-67
2021/09/28 03:21:21;;;;;;;3.80;2.40;;;;;;;7.96;78.52;101156.23;93768;1195;94256;-67
2021/09/28 03:23:25;;;;;;;5.00;2.80;;;;;;;7.94;78.72;101156.12;93795;1195;79558;-67
2021/09/28 03:25:29;;;;;;;5.90;2.70;;;;;;;7.91;78.75;101154.95;93827;1196;80229;-67
2021/09/28 03:27:34;;;;;;;3.60;2.70;;;;;;;7.92;78.69;101150.05;93781;1195;99047;-66
2021/09/28 03:32:11;;;;;;;4.70;2.70;;;;;;;7.91;78.78;101151.18;91896;1184;3024080;-68
2021/09/28 03:34:15;;;;;;;4.60;2.50;;;;;;;7.89;78.77;101153.17;93797;1195;64192;-66
2021/09/28 03:36:19;;;;;;;5.80;3.20;;;;;;;7.91;78.81;101155.70;93972;1195;80227;-66
2021/09/28 03:38:23;;;;;;;4.20;2.90;;;;;;;7.88;78.88;101153.84;94012;1195;100307;-67
2021/09/28 03:40:29;;;;;;;5.70;3.60;;;;;;;7.87;78.85;101156.09;94031;1195;87944;-67
2021/09/28 03:42:34;;;;;;;5.00;3.50;;;;;;;7.85;78.88;101154.55;94084;1195;93483;-67
2021/09/28 03:44:38;;;;;;;4.50;3.30;;;;;;;7.83;78.78;101154.05;94120;1195;80701;-67
2021/09/28 03:46:45;;;;;;;4.60;3.20;;;;;;;7.83;78.95;101153.82;94073;1195;81824;-66
2021/09/28 03:48:50;;;;;;;5.70;3.00;;;;;;;7.82;78.93;101152.27;94099;1195;100059;-66
2021/09/28 03:50:54;;;;;;;4.50;3.20;;;;;;;7.82;79.02;101148.61;94127;1195;87707;-67
2021/09/28 03:52:58;;;;;;;3.70;2.80;;;;;;;7.81;79.12;101148.85;94127;1195;93317;-67
2021/09/28 03:55:04;;;;;;;3.70;2.90;;;;;;;7.79;79.06;101149.60;94122;1196;78725;-67
2021/09/28 03:57:11;;;;;;;4.30;2.70;;;;;;;7.76;79.02;101150.91;94114;1195;80268;-67
2021/09/28 03:59:15;;;;;;;4.70;3.40;;;;;;;7.75;79.16;101149.27;94102;1196;98098;-67
2021/09/28 04:01:19;;;;;;;5.10;2.70;;;;;;;7.74;79.21;101147.90;94121;1195;87737;-66
2021/09/28 04:03:23;;;;;;;5.70;2.80;;;;;;;7.74;79.30;101152.91;94121;1196;94269;-67
2021/09/28 04:05:28;;;;;;;3.60;2.70;;;;;;;7.73;79.34;101155.52;94086;1196;77407;-66
2021/09/28 04:07:32;;;;;;;3.60;2.80;;;;;;;7.71;79.28;101154.65;94113;1195;82216;-65
2021/09/28 04:09:36;;;;;;;5.10;2.60;;;;;;;7.66;79.34;101157.25;94136;1196;99147;-67
2021/09/28 04:11:40;;;;;;;4.40;2.90;;;;;;;7.65;79.44;101156.67;94097;1195;86761;-66
2021/09/28 04:13:47;;;;;;;4.50;3.00;;;;;;;7.64;79.47;101159.41;94104;1195;93914;-67
2021/09/28 04:15:52;;;;;;;4.10;2.80;;;;;;;7.64;79.54;101156.20;94109;1195;79966;-67
2021/09/28 04:17:56;;;;;;;8.10;3.10;;;;;;;7.65;79.57;101158.59;94167;1195;80120;-67
2021/09/28 04:20:01;;;;;;;4.10;3.40;;;;;;;7.67;79.59;101161.60;94109;1195;100662;-69
2021/09/28 04:22:06;;;;;;;5.60;2.70;;;;;;;7.71;79.63;101166.77;93778;1196;87408;-68
2021/09/28 04:24:14;;;;;;;6.50;3.00;;;;;;;7.74;79.65;101169.61;94082;1195;94147;-68
2021/09/28 04:26:21;;;;;;;4.20;2.40;;;;;;;7.75;79.63;101169.11;94088;1195;78787;-68
2021/09/28 04:28:25;;;;;;;4.40;2.80;;;;;;;7.78;79.69;101172.09;94139;1195;82580;-68
2021/09/28 04:30:33;;;;;;;4.30;2.80;;;;;;;7.80;79.63;101171.14;94098;1196;99681;-69
2021/09/28 04:32:37;;;;;;;4.20;2.80;;;;;;;7.77;79.89;101174.82;94091;1196;87393;-69
2021/09/28 04:34:41;;;;;;;4.20;2.60;;;;;;;7.77;79.83;101172.23;94114;1196;94570;-69
2021/09/28 04:36:45;;;;;;;4.70;3.20;;;;;;;7.78;79.82;101173.01;94076;1195;81254;-69
2021/09/28 04:38:50;;;;;;;3.80;2.70;;;;;;;7.79;79.80;101177.21;94148;1195;81404;-69
2021/09/28 04:41:00;;;;;;;3.70;2.40;;;;;;;7.80;79.77;101175.48;94139;1196;100051;-69
2021/09/28 04:43:04;;;;;;;3.70;2.90;;;;;;;7.82;79.71;101173.31;93767;1197;88182;-69
2021/09/28 04:45:10;;;;;;;4.00;2.50;;;;;;;7.81;79.79;101176.94;94084;1196;93299;-67
2021/09/28 04:47:14;;;;;;;4.40;2.90;;;;;;;7.83;79.79;101181.83;94067;1195;81123;-70
2021/09/28 04:49:18;;;;;;;4.10;2.90;;;;;;;7.82;79.81;101191.02;94104;1195;82251;-68
2021/09/28 04:51:22;;;;;;;4.00;2.60;;;;;;;7.84;79.82;101189.04;94106;1195;99171;-65
2021/09/28 04:53:27;;;;;;;4.20;2.90;;;;;;;7.87;79.93;101192.47;94090;1196;87776;-66
2021/09/28 04:55:31;;;;;;;4.20;2.80;;;;;;;7.90;79.92;101191.86;94124;1195;94104;-67
2021/09/28 04:57:35;;;;;;;4.20;3.40;;;;;;;7.92;79.96;101197.70;94102;1195;80678;-70
2021/09/28 04:59:39;;;;;;;3.30;2.60;;;;;;;7.97;79.86;101195.80;94049;1196;82035;-70
2021/09/28 05:01:44;;;;;;;3.30;2.70;;;;;;;7.98;79.90;101198.36;94093;1196;99339;-70
2021/09/28 05:03:48;;;;;;;4.80;2.50;;;;;;;8.02;79.72;101198.16;94124;1196;87568;-70
2021/09/28 05:05:52;;;;;;;4.60;3.00;;;;;;;8.07;79.80;101203.17;93785;1196;92370;-69
2021/09/28 05:07:59;;;;;;;5.00;2.80;;;;;;;8.11;79.73;101201.34;94120;1195;80015;-71
2021/09/28 05:10:09;;;;;;;3.70;2.50;;;;;;;8.14;79.74;101204.61;94100;1195;82058;-70
2021/09/28 05:12:13;;;;;;;3.80;2.90;;;;;;;8.19;79.61;101205.94;94098;1195;100225;-67
2021/09/28 05:14:20;;;;;;;4.30;2.50;;;;;;;8.23;79.64;101207.52;94124;1195;88435;-68
2021/09/28 05:16:24;;;;;;;4.70;2.90;;;;;;;8.28;79.55;101206.27;94089;1196;93744;-71
2021/09/28 05:18:29;;;;;;;3.80;2.40;;;;;;;8.33;79.43;101208.08;94085;1195;78205;-67
2021/09/28 05:20:37;;;;;;;4.20;2.50;;;;;;;8.40;79.41;101208.10;94088;1195;81489;-67
2021/09/28 05:22:42;;;;;;;5.00;3.50;;;;;;;8.44;79.35;101213.76;94070;1195;99004;-67
2021/09/28 05:24:47;;;;;;;3.90;2.50;;;;;;;8.51;79.34;101219.02;94108;1195;88215;-68
2021/09/28 05:26:51;;;;;;;4.50;3.10;;;;;;;8.57;79.28;101220.39;94106;1195;93734;-67
2021/09/28 05:28:55;;;;;;;4.30;2.70;;;;;;;8.61;79.24;101223.35;94095;1196;80047;-67
2021/09/28 05:30:59;;;;;;;3.30;2.50;;;;;;;8.66;79.13;101225.01;94076;1195;80722;-69
2021/09/28 05:33:05;;;;;;;6.40;2.90;;;;;;;8.70;79.14;101225.64;93725;1196;99495;-67
2021/09/28 05:35:12;;;;;;;4.00;2.80;;;;;;;8.77;79.00;101225.67;94096;1196;88178;-69
2021/09/28 05:37:16;;;;;;;3.70;2.60;;;;;;;8.88;78.92;101230.27;94054;1195;94640;-69
2021/09/28 05:39:20;;;;;;;5.20;2.90;;;;;;;9.03;78.81;101236.27;94094;1196;79991;-67
2021/09/28 05:41:25;;;;;;;4.10;2.70;;;;;;;9.17;78.71;101235.48;94099;1195;80792;-67
2021/09/28 05:43:30;;;;;;;3.80;2.80;;;;;;;9.30;78.71;101241.28;94121;1187;99326;-68
2021/09/28 05:45:38;;;;;;;5.60;2.70;;;;;;;9.43;78.60;101243.30;94069;1196;88095;-67
2021/09/28 05:47:42;;;;;;;4.20;2.70;;;;;;;9.53;78.47;101248.95;94060;1196;94368;-68
2021/09/28 05:49:47;;;;;;;4.60;3.10;;;;;;;9.58;78.22;101249.61;94080;1195;82509;-67
2021/09/28 05:51:54;;;;;;;4.20;2.70;;;;;;;9.59;77.94;101254.34;94125;1196;81453;-68
2021/09/28 05:54:00;;;;;;;5.30;3.10;;;;;;;9.60;77.89;101256.77;94113;1195;100614;-68
2021/09/28 05:56:05;;;;;;;3.40;2.80;;;;;;;9.70;78.03;101261.63;94106;1195;87714;-69
2021/09/28 05:58:09;;;;;;;4.90;2.80;;;;;;;9.81;77.66;101264.27;94087;1195;95234;-69
2021/09/28 06:00:16;;;;;;;3.80;2.90;;;;;;;9.83;77.51;101262.56;94093;1195;78984;-70
2021/09/28 06:02:20;;;;;;;4.00;2.90;;;;;;;9.92;77.45;101265.40;94086;1195;82066;-70
2021/09/28 06:04:24;;;;;;;3.70;2.60;;;;;;;9.97;77.06;101265.51;94063;1195;101087;-69
2021/09/28 06:06:29;;;;;;;3.90;2.90;;;;;;;10.02;77.04;101269.64;94099;1196;87209;-68
2021/09/28 06:08:34;;;;;;;4.80;2.70;;;;;;;10.07;76.93;101272.36;94109;1195;93960;-68
2021/09/28 06:10:42;;;;;;;4.90;2.60;;;;;;;10.12;76.74;101269.74;94094;1196;79437;-67
2021/09/28 06:12:46;;;;;;;7.10;3.50;;;;;;;10.14;76.56;101277.04;94113;1196;81360;-68
2021/09/28 06:14:50;;;;;;;4.40;2.50;;;;;;;10.20;76.43;101277.91;94092;1195;99697;-68
2021/09/28 06:16:55;;;;;;;3.30;2.40;;;;;;;10.24;76.18;101283.20;94101;1195;87816;-69
2021/09/28 06:18:59;;;;;;;4.20;2.20;;;;;;;10.28;75.98;101289.07;94037;1196;94684;-69
2021/09/28 06:21:03;;;;;;;3.20;2.50;;;;;;;10.35;75.99;101295.27;94042;1195;80061;-67
2021/09/28 06:23:07;;;;;;;4.80;2.10;;;;;;;10.46;75.93;101299.88;94085;1196;80901;-67
2021/09/28 06:25:12;;;;;;;4.10;2.40;;;;;;;10.54;75.69;101300.23;94084;1196;98074;-66
2021/09/28 06:27:16;;;;;;;3.90;2.20;;;;;;;10.61;75.50;101301.35;94070;1195;88361;-69
2021/09/28 06:29:21;;;;;;;2.90;2.30;;;;;;;10.70;75.44;101297.70;94038;1195;93711;-69
2021/09/28 06:31:25;;;;;;;3.50;2.30;;;;;;;10.86;75.09;101302.41;94081;1196;79275;-70
2021/09/28 06:33:29;;;;;;;3.20;2.30;;;;;;;11.06;74.87;101300.95;94093;1195;81633;-70
2021/09/28 06:35:37;;;;;;;3.40;2.20;;;;;;;11.22;74.60;101297.31;94091;1195;100384;-71
2021/09/28 06:37:44;;;;;;;6.30;3.30;;;;;;;11.30;74.43;101299.83;94095;1196;87319;-70
2021/09/28 06:39:48;;;;;;;4.00;2.50;;;;;;;11.32;74.16;101299.48;94083;1196;94793;-70
2021/09/28 06:41:55;;;;;;;3.00;2.20;;;;;;;11.31;73.78;101304.27;94058;1196;80702;-67
2021/09/28 06:44:00;;;;;;;4.90;2.00;;;;;;;11.36;73.63;101304.41;94116;1195;80564;-69
2021/09/28 06:46:06;;;;;;;3.40;2.20;;;;;;;11.41;73.41;101303.29;94099;1195;98919;-67
2021/09/28 06:48:10;;;;;;;4.90;2.40;;;;;;;11.42;72.87;101307.14;94034;1196;87570;-66
2021/09/28 06:50:14;;;;;;;5.50;2.30;;;;;;;11.39;72.82;101307.75;94075;1195;95320;-68
2021/09/28 06:52:18;;;;;;;5.30;3.00;;;;;;;11.40;72.41;101308.29;94050;1196;77246;-68
2021/09/28 06:54:22;;;;;;;5.50;2.70;;;;;;;11.44;72.41;101311.47;94064;1195;80952;-67
2021/09/28 06:56:28;;;;;;;6.00;2.70;;;;;;;11.43;71.76;101309.21;94019;1196;100207;-69
2021/09/28 06:58:32;;;;;;;4.00;1.90;;;;;;;11.43;72.10;101311.20;94100;1195;86645;-70
2021/09/28 07:00:37;;;;;;;3.90;2.20;;;;;;;11.49;72.02;101313.38;94045;1196;94014;-69
2021/09/28 07:03:01;;;;;;;3.30;2.10;;;;;;;11.53;71.79;101313.23;94134;1195;78090;-69
2021/09/28 07:05:11;;;;;;;3.40;2.20;;;;;;;11.54;71.44;101313.91;94102;1196;81678;-67
2021/09/28 07:07:16;;;;;;;5.30;2.20;;;;;;;11.61;71.60;101315.55;94072;1196;98248;-68
2021/09/28 07:09:20;;;;;;;4.40;2.00;;;;;;;11.75;71.62;101318.11;94063;1195;87999;-67
2021/09/28 07:11:24;;;;;;;5.30;2.20;;;;;;;11.88;71.22;101319.96;94050;1195;95065;-68
2021/09/28 07:13:28;;;;;;;3.10;1.80;;;;;;;12.04;71.38;101321.67;94054;1195;80061;-68
2021/09/28 07:15:33;;;;;;;3.80;2.00;;;;;;;12.18;71.32;101325.23;94083;1195;80965;-67
2021/09/28 07:17:37;;;;;;;3.10;2.10;;;;;;;12.36;70.98;101329.09;94028;1195;98180;-68
2021/09/28 07:19:41;;;;;;;3.60;1.90;;;;;;;12.43;70.18;101333.45;94065;1196;88375;-68
2021/09/28 07:21:45;;;;;;;4.30;2.00;;;;;;;12.54;70.02;101335.16;94056;1195;92468;-67
2021/09/28 07:23:50;;;;;;;3.20;1.90;;;;;;;12.65;69.81;101332.20;94031;1196;78228;-68
2021/09/28 07:25:54;;;;;;;3.10;1.90;;;;;;;12.70;69.01;101338.46;94057;1195;80399;-69
2021/09/28 07:28:00;;;;;;;2.50;1.80;;;;;;;12.67;68.84;101341.02;94071;1196;99972;-67
2021/09/28 07:30:07;;;;;;;3.00;2.20;;;;;;;12.68;69.09;101339.98;94052;1195;88506;-69
2021/09/28 07:32:13;;;;;;;3.00;2.40;;;;;;;12.75;69.17;101341.67;94012;1196;93738;-67
2021/09/28 07:34:17;;;;;;;4.30;1.90;;;;;;;12.89;69.05;101345.16;94021;1196;80045;-69
2021/09/28 07:36:22;;;;;;;3.50;2.00;;;;;;;13.02;68.44;101342.92;94074;1196;82026;-69
2021/09/28 07:38:29;;;;;;;3.70;2.00;;;;;;;13.04;68.32;101344.10;94061;1196;100473;-68
2021/09/28 07:40:34;;;;;;;3.40;2.00;;;;;;;13.10;68.14;101340.35;94060;1195;87706;-68
2021/09/28 07:42:39;;;;;;;5.30;1.70;;;;;;;13.16;67.40;101343.87;94072;1195;92944;-69
2021/09/28 07:44:43;;;;;;;3.40;1.90;;;;;;;13.18;67.50;101348.45;94062;1196;79613;-70
2021/09/28 07:46:47;;;;;;;5.90;1.90;;;;;;;13.22;67.65;101346.15;94056;1195;82690;-69
2021/09/28 07:48:51;;;;;;;2.90;1.90;;;;;;;13.31;67.60;101345.96;94041;1195;99447;-69
2021/09/28 07:50:55;;;;;;;3.20;1.80;;;;;;;13.42;67.47;101345.31;94041;1195;88378;-68
2021/09/28 07:53:01;;;;;;;5.10;1.90;;;;;;;13.53;67.33;101338.68;94077;1196;94112;-68
2021/09/28 07:55:07;;;;;;;3.30;1.90;;;;;;;13.61;67.49;101339.88;93808;1196;79323;-68
2021/09/28 07:57:11;;;;;;;3.20;1.60;;;;;;;13.70;67.26;101341.52;94047;1195;80315;-68
2021/09/28 07:59:15;;;;;;;3.50;1.50;;;;;;;13.84;66.56;101340.55;94067;1195;99776;-68
2021/09/28 08:01:19;;;;;;;4.90;1.80;;;;;;;14.04;66.19;101339.86;94046;1196;87269;-69
2021/09/28 08:03:24;;;;;;;4.30;1.70;;;;;;;14.32;65.78;101344.16;94088;1180;93890;-68
2021/09/28 08:05:29;;;;;;;3.10;1.60;;;;;;;15.01;65.73;101338.60;94059;1196;78350;-69
2021/09/28 08:07:38;;;;;;;2.80;1.70;;;;;;;16.54;65.03;101340.63;94002;1196;81154;-68
2021/09/28 08:09:43;;;;;;;2.60;1.50;;;;;;;18.16;62.99;101334.59;94095;1195;99877;-67
2021/09/28 08:11:52;;;;;;;2.00;1.50;;;;;;;19.54;61.66;101334.64;94016;1195;87540;-69
2021/09/28 08:13:59;;;;;;;2.20;1.50;;;;;;;20.83;58.89;101334.58;94077;1196;93818;-69
2021/09/28 08:16:04;;;;;;;2.40;1.30;;;;;;;21.70;57.17;101331.36;94032;1196;80153;-69
2021/09/28 08:18:08;;;;;;;2.80;1.70;;;;;;;22.59;55.81;101332.65;94065;1196;81785;-68
2021/09/28 08:20:16;;;;;;;2.80;1.40;;;;;;;23.51;52.89;101334.96;94089;1195;98054;-68
2021/09/28 08:22:24;;;;;;;2.10;1.30;;;;;;;24.10;52.82;101330.70;94012;1195;87343;-68
2021/09/28 08:24:31;;;;;;;2.10;1.40;;;;;;;24.82;50.91;101333.38;93794;1196;94108;-75
2021/09/28 08:29:12;;;;;;;3.00;1.40;;;;;;;24.95;47.19;101335.56;94049;1196;82324;-68
2021/09/28 08:31:19;;;;;;;5.00;1.50;;;;;;;25.35;47.28;101332.61;94067;1196;99051;-69
2021/09/28 08:33:23;;;;;;;4.30;1.30;;;;;;;25.84;46.51;101331.45;94080;1196;87354;-69
2021/09/28 08:35:31;;;;;;;4.30;1.50;;;;;;;26.05;45.34;101333.01;94008;1196;95309;-70
2021/09/28 08:37:35;;;;;;;2.50;1.10;;;;;;;26.41;44.95;101331.70;94036;1196;80045;-70
2021/09/28 08:39:39;;;;;;;3.50;1.40;;;;;;;26.51;43.76;101334.79;94101;1195;81508;-68
2021/09/28 08:41:46;;;;;;;2.30;1.20;;;;;;;26.20;43.47;101334.66;94048;1195;99035;-69
2021/09/28 08:43:51;;;;;;;3.50;1.60;;;;;;;26.05;43.13;101333.67;94101;1196;86622;-69
2021/09/28 08:45:58;;;;;;;2.50;1.40;;;;;;;26.32;43.27;101334.44;94021;1196;94340;-68
2021/09/28 08:48:02;;;;;;;1.80;1.30;;;;;;;26.24;41.64;101338.90;94045;1195;78819;-69
2021/09/28 08:50:15;;;;;;;1.60;1.20;;;;;;;26.26;41.75;101333.20;94130;1195;80274;-66
2021/09/28 08:52:19;;;;;;;3.00;1.40;;;;;;;26.23;41.04;101333.68;94033;1195;100237;-69
2021/09/28 08:54:26;;;;;;;2.70;1.20;;;;;;;25.68;40.08;101339.85;94045;1195;87335;-68
2021/09/28 08:56:34;;;;;;;2.50;1.10;;;;;;;25.33;39.03;101344.04;94002;1196;93113;-68
2021/09/28 08:58:56;;;;;;;2.90;1.20;;;;;;;25.17;40.31;101342.02;93763;1196;78666;-67
2021/09/28 09:01:07;;;;;;;4.00;1.20;;;;;;;25.08;39.29;101341.81;94067;1195;80185;-69
2021/09/28 09:03:27;;;;;;;2.90;1.40;;;;;;;25.13;39.49;101341.55;94066;1196;98914;-69
2021/09/28 09:05:32;;;;;;;2.30;1.30;;;;;;;25.14;39.14;101340.40;94070;1195;87686;-70
2021/09/28 09:07:39;;;;;;;2.70;1.40;;;;;;;25.09;39.05;101335.52;94118;1196;93391;-70
2021/09/28 09:09:48;;;;;;;3.50;1.30;;;;;;;25.03;38.96;101337.92;94040;1196;78422;-68
2021/09/28 09:11:57;;;;;;;1.80;1.30;;;;;;;24.74;38.04;101336.44;94084;1196;81168;-68
2021/09/28 09:14:13;;;;;;;4.00;1.10;;;;;;;24.52;38.34;101334.85;94060;1196;99601;-67
2021/09/28 09:16:20;;;;;;;2.10;1.30;;;;;;;24.50;39.17;101333.02;94089;1195;87523;-68
2021/09/28 09:18:24;;;;;;;2.50;1.20;;;;;;;24.57;39.15;101336.90;94069;1196;93678;-68
2021/09/28 09:20:40;;;;;;;2.00;1.10;;;;;;;24.44;38.89;101331.44;94017;1195;78928;-69
2021/09/28 09:22:44;;;;;;;2.00;1.10;;;;;;;24.31;39.18;101337.02;93986;1195;81343;-68
2021/09/28 09:24:51;;;;;;;3.80;1.50;;;;;;;24.10;39.02;101329.55;94021;1195;99183;-69
2021/09/28 09:26:55;;;;;;;2.00;1.10;;;;;;;24.06;38.80;101339.16;93974;1196;88107;-68
2021/09/28 09:29:01;;;;;;;2.50;1.60;;;;;;;23.42;38.58;101347.54;94024;1196;93962;-68
2021/09/28 09:31:22;;;;;;;1.90;1.20;;;;;;;23.30;39.56;101346.44;93977;1196;79851;-69
2021/09/28 09:33:27;;;;;;;3.40;1.70;;;;;;;23.14;39.51;101343.47;94049;1195;80276;-66
2021/09/28 09:35:33;;;;;;;2.40;1.40;;;;;;;23.05;39.80;101340.65;94047;1196;100799;-67
2021/09/28 09:37:39;;;;;;;2.50;1.30;;;;;;;23.04;39.81;101343.00;94018;1196;87009;-69
2021/09/28 09:39:49;;;;;;;2.40;1.20;;;;;;;22.74;39.54;101346.27;94022;1195;94795;-67
2021/09/28 09:42:07;;;;;;;1.90;1.60;;;;;;;22.48;39.98;101347.59;94008;1195;78476;-67
2021/09/28 09:44:15;;;;;;;5.10;1.50;;;;;;;21.85;39.79;101344.77;94039;1196;82355;-67
2021/09/28 09:46:22;;;;;;;2.80;1.20;;;;;;;21.24;40.22;101353.77;93998;1196;98152;-70
2021/09/28 09:48:30;;;;;;;2.80;1.80;;;;;;;20.82;41.33;101355.77;93922;1196;88937;-69
2021/09/28 09:50:36;;;;;;;2.10;1.30;;;;;;;20.40;41.62;101350.13;94015;1195;93332;-68
2021/09/28 09:53:08;;;;;;;2.00;1.30;;;;;;;20.18;42.33;101347.61;94050;1196;78764;-69